Time;durP1;ratioP1;P1;durP2;ratioP2;P2;SDS_P1;SDS_P2;PMS_P1;PMS_P2;Temp;Humidity;BMP_temperature;BMP_pressure;BME280_temperature;BME280_humidity;BME280_pressure;Samples;Min_cycle;Max_cycle;Signal;HPM_P1;HPM_P2
2021/10/05 00:01:05;;;;;;;13.40;11.93;;;;;;;10.39;100.00;95670.84;5050855;28;24816;-77
2021/10/05 00:03:34;;;;;;;12.02;10.80;;;;;;;10.40;100.00;95667.34;5050201;28;21321;-77
2021/10/05 00:06:01;;;;;;;12.23;11.13;;;;;;;10.40;100.00;95676.88;5050365;28;20762;-77
2021/10/05 00:08:27;;;;;;;14.25;10.93;;;;;;;10.39;100.00;95676.03;5054211;28;24466;-77
2021/10/05 00:10:55;;;;;;;18.80;10.55;;;;;;;10.35;100.00;95664.22;5054477;28;24446;-77
2021/10/05 00:13:21;;;;;;;10.63;9.52;;;;;;;10.37;100.00;95652.00;5054240;28;24466;-77
2021/10/05 00:15:48;;;;;;;17.20;9.48;;;;;;;10.50;100.00;95649.47;5053388;28;25014;-77
2021/10/05 00:18:15;;;;;;;9.05;8.25;;;;;;;10.62;100.00;95648.66;5053324;28;24481;-77
2021/10/05 00:20:43;;;;;;;10.35;9.32;;;;;;;10.69;100.00;95659.47;5053693;28;24808;-77
2021/10/05 00:23:09;;;;;;;9.45;8.65;;;;;;;10.75;100.00;95653.03;5053989;28;20755;-77
2021/10/05 00:25:37;;;;;;;10.32;9.38;;;;;;;10.74;100.00;95643.63;5053567;28;24458;-76
2021/10/05 00:28:04;;;;;;;9.77;8.63;;;;;;;10.79;100.00;95634.63;5053507;28;24454;-77
2021/10/05 00:30:30;;;;;;;7.97;7.28;;;;;;;10.81;100.00;95629.31;5054218;28;24419;-76
2021/10/05 00:32:56;;;;;;;6.93;6.32;;;;;;;10.98;100.00;95628.22;5052884;28;24428;-77
2021/10/05 00:35:23;;;;;;;6.20;5.35;;;;;;;11.06;100.00;95619.00;5051498;28;24893;-77
2021/10/05 00:37:51;;;;;;;4.68;4.28;;;;;;;11.01;100.00;95609.84;5051152;28;24940;-77
2021/10/05 00:40:17;;;;;;;4.88;4.47;;;;;;;10.97;100.00;95608.41;5051920;28;24481;-77
2021/10/05 00:42:44;;;;;;;5.30;4.75;;;;;;;10.91;100.00;95601.88;5052012;28;24423;-77
2021/10/05 00:45:10;;;;;;;7.15;6.55;;;;;;;10.83;100.00;95602.41;5051637;28;24458;-77
2021/10/05 00:47:37;;;;;;;9.82;8.90;;;;;;;10.66;100.00;95600.91;5053270;28;24466;-77
2021/10/05 00:50:06;;;;;;;10.63;9.63;;;;;;;10.61;100.00;95600.41;5053580;28;24469;-77
2021/10/05 00:52:33;;;;;;;10.15;9.13;;;;;;;10.60;100.00;95595.28;5053843;28;24535;-76
2021/10/05 00:55:00;;;;;;;11.10;10.18;;;;;;;10.47;100.00;95592.69;5053752;28;24414;-77
2021/10/05 00:57:27;;;;;;;10.10;9.07;;;;;;;10.39;100.00;95585.44;5053600;28;24419;-76
2021/10/05 00:59:54;;;;;;;10.50;9.48;;;;;;;10.38;100.00;95573.41;5053307;28;24430;-76
2021/10/05 01:02:21;;;;;;;10.65;9.57;;;;;;;10.40;100.00;95573.31;5053996;28;24415;-77
2021/10/05 01:04:48;;;;;;;30.73;9.52;;;;;;;10.33;100.00;95569.47;5052850;28;24431;-76
2021/10/05 01:07:16;;;;;;;12.45;8.57;;;;;;;10.30;100.00;95567.88;5053058;28;24419;-77
2021/10/05 01:09:44;;;;;;;18.25;7.80;;;;;;;10.27;100.00;95559.50;5053689;28;25011;-77
2021/10/05 01:12:13;;;;;;;23.27;8.35;;;;;;;10.24;100.00;95557.91;5055316;28;20800;-77
2021/10/05 01:14:40;;;;;;;8.80;8.00;;;;;;;10.25;100.00;95553.56;5055386;28;20740;-77
2021/10/05 01:17:08;;;;;;;10.90;9.90;;;;;;;10.15;100.00;95542.97;5054361;28;24422;-76
2021/10/05 01:19:34;;;;;;;9.60;8.80;;;;;;;10.21;100.00;95546.94;5053902;28;24411;-77
2021/10/05 01:22:03;;;;;;;10.50;9.40;;;;;;;10.22;100.00;95546.00;5053419;28;24836;-77
2021/10/05 01:24:30;;;;;;;10.90;9.80;;;;;;;10.26;100.00;95550.91;5053105;28;24427;-77
2021/10/05 01:26:57;;;;;;;10.18;9.27;;;;;;;10.30;100.00;95559.28;5052486;28;24432;-77
2021/10/05 01:29:26;;;;;;;11.07;9.93;;;;;;;10.23;100.00;95553.66;5051606;28;20787;-77
2021/10/05 01:31:56;;;;;;;10.57;9.75;;;;;;;10.17;100.00;95549.72;5052440;28;20762;-77
2021/10/05 01:34:24;;;;;;;9.38;8.57;;;;;;;10.28;100.00;95556.81;5051877;28;24431;-77
2021/10/05 01:36:52;;;;;;;10.65;9.65;;;;;;;10.35;100.00;95555.50;5051356;28;20866;-77
2021/10/05 01:39:25;;;;;;;10.80;9.73;;;;;;;10.39;100.00;95563.88;5051233;28;24434;-77
2021/10/05 01:41:56;;;;;;;11.10;10.05;;;;;;;10.41;100.00;95564.59;5051223;28;24427;-77
2021/10/05 01:44:23;;;;;;;11.07;10.07;;;;;;;10.46;100.00;95553.97;5052171;28;24427;-77
2021/10/05 01:46:50;;;;;;;12.10;11.00;;;;;;;10.45;100.00;95554.88;5052053;28;24665;-77
2021/10/05 01:49:18;;;;;;;12.30;11.13;;;;;;;10.40;100.00;95550.84;5055751;28;20776;-77
2021/10/05 01:51:46;;;;;;;12.02;10.95;;;;;;;10.43;100.00;95549.81;5055355;28;24450;-76
2021/10/05 01:54:13;;;;;;;12.32;11.30;;;;;;;10.53;100.00;95548.28;5055346;28;24434;-77
2021/10/05 01:56:40;;;;;;;12.18;10.95;;;;;;;10.43;100.00;95546.41;5055578;28;20777;-77
2021/10/05 01:59:07;;;;;;;11.40;10.50;;;;;;;10.40;100.00;95537.06;5055932;28;24473;-76
2021/10/05 02:01:33;;;;;;;12.00;10.90;;;;;;;10.34;100.00;95540.88;5055565;28;24435;-77
2021/10/05 02:04:00;;;;;;;12.45;11.20;;;;;;;10.32;100.00;95534.97;5055717;28;24450;-77
2021/10/05 02:06:26;;;;;;;11.83;10.73;;;;;;;10.37;100.00;95550.19;5054855;28;24438;-77
2021/10/05 02:08:53;;;;;;;11.20;10.18;;;;;;;10.50;100.00;95548.47;5055382;28;24470;-77
2021/10/05 02:11:19;;;;;;;10.70;9.80;;;;;;;10.60;100.00;95544.31;5055501;28;24435;-76
2021/10/05 02:13:47;;;;;;;12.48;10.02;;;;;;;10.61;100.00;95543.41;5055199;28;25014;-77
2021/10/05 02:16:14;;;;;;;11.20;10.10;;;;;;;10.56;100.00;95540.28;5054650;28;20809;-77
2021/10/05 02:18:46;;;;;;;10.70;9.70;;;;;;;10.43;100.00;95523.91;5054974;28;24422;-77
2021/10/05 02:21:12;;;;;;;9.85;9.05;;;;;;;10.34;100.00;95517.56;5054942;28;24424;-77
2021/10/05 02:26:19;;;;;;;11.35;10.30;;;;;;;10.13;100.00;95506.84;5054464;28;24470;-77
2021/10/05 02:28:45;;;;;;;10.45;9.27;;;;;;;10.09;100.00;95501.97;5054828;28;24466;-77
2021/10/05 02:31:13;;;;;;;9.90;8.90;;;;;;;10.08;100.00;95498.53;5055005;28;24460;-77
2021/10/05 02:33:39;;;;;;;10.20;9.25;;;;;;;10.08;100.00;95498.53;5054774;28;24995;-77
2021/10/05 02:36:06;;;;;;;9.80;8.90;;;;;;;10.04;100.00;95498.84;5054599;28;24414;-77
2021/10/05 02:38:33;;;;;;;10.48;9.48;;;;;;;10.06;100.00;95492.66;5054887;28;24427;-77
2021/10/05 02:40:59;;;;;;;10.37;9.47;;;;;;;10.06;100.00;95497.00;5054886;28;24423;-77
2021/10/05 02:43:25;;;;;;;12.02;10.40;;;;;;;10.10;100.00;95496.69;5054757;28;20767;-76
2021/10/05 02:45:52;;;;;;;11.23;10.02;;;;;;;10.08;100.00;95489.94;5054325;28;20755;-76
2021/10/05 02:48:20;;;;;;;9.82;9.02;;;;;;;10.06;100.00;95491.81;5054133;28;20840;-76
2021/10/05 02:50:47;;;;;;;9.95;8.95;;;;;;;10.08;100.00;95495.94;5054196;28;20827;-77
2021/10/05 02:53:13;;;;;;;9.15;8.45;;;;;;;10.14;100.00;95494.75;5054465;28;24453;-77
2021/10/05 02:55:40;;;;;;;9.23;8.27;;;;;;;10.27;100.00;95494.78;5053641;28;24427;-76
2021/10/05 02:58:07;;;;;;;9.15;8.35;;;;;;;10.33;100.00;95494.38;5053905;28;24430;-77
2021/10/05 03:00:34;;;;;;;9.70;8.90;;;;;;;10.34;100.00;95499.44;5053577;28;24419;-76
2021/10/05 03:03:00;;;;;;;10.93;9.82;;;;;;;10.32;100.00;95495.31;5054429;28;21300;-77
2021/10/05 03:05:28;;;;;;;11.40;10.27;;;;;;;10.30;100.00;95492.81;5053845;28;24435;-76
2021/10/05 03:07:55;;;;;;;10.40;9.50;;;;;;;10.30;100.00;95485.06;5053454;28;20771;-77
2021/10/05 03:10:21;;;;;;;10.27;9.48;;;;;;;10.34;100.00;95483.91;5053977;28;24469;-77
2021/10/05 03:12:48;;;;;;;11.73;9.65;;;;;;;10.43;100.00;95484.25;5054399;28;24422;-77
2021/10/05 03:15:15;;;;;;;9.77;8.88;;;;;;;10.51;100.00;95487.16;5054022;28;24983;-77
2021/10/05 03:17:41;;;;;;;9.77;8.88;;;;;;;10.56;100.00;95477.31;5054371;28;24431;-77
2021/10/05 03:20:09;;;;;;;10.50;9.50;;;;;;;10.48;100.00;95472.66;5054628;28;25046;-76
2021/10/05 03:22:38;;;;;;;10.40;9.40;;;;;;;10.47;100.00;95470.19;5054782;28;24431;-77
2021/10/05 03:25:05;;;;;;;10.95;9.85;;;;;;;10.46;100.00;95469.34;5054621;28;21484;-76
2021/10/05 03:27:35;;;;;;;9.82;9.02;;;;;;;10.33;100.00;95468.50;5054732;28;24472;-77
2021/10/05 03:30:01;;;;;;;10.57;9.57;;;;;;;10.37;100.00;95469.94;5054559;28;20779;-77
2021/10/05 03:32:28;;;;;;;9.93;9.03;;;;;;;10.35;100.00;95470.06;5053860;28;24504;-77
2021/10/05 03:34:54;;;;;;;9.50;8.70;;;;;;;10.39;100.00;95465.50;5054404;28;20805;-77
2021/10/05 03:37:21;;;;;;;10.35;8.23;;;;;;;10.47;100.00;95462.41;5054165;28;24481;-77
2021/10/05 03:39:49;;;;;;;10.63;9.18;;;;;;;10.36;100.00;95456.19;5054095;28;24777;-77
2021/10/05 03:42:15;;;;;;;9.20;8.30;;;;;;;10.40;100.00;95436.09;5054406;28;24572;-77
2021/10/05 03:44:42;;;;;;;8.57;7.88;;;;;;;10.48;100.00;95433.00;5053774;28;24414;-77
2021/10/05 03:47:09;;;;;;;8.83;6.70;;;;;;;10.52;100.00;95434.44;5054364;28;25151;-77
2021/10/05 03:49:35;;;;;;;8.00;7.30;;;;;;;10.56;100.00;95430.69;5054575;28;20814;-77
2021/10/05 03:52:02;;;;;;;9.70;8.80;;;;;;;10.54;100.00;95445.53;5054148;28;20886;-77
2021/10/05 03:54:29;;;;;;;10.23;9.30;;;;;;;10.47;100.00;95455.47;5054356;28;20763;-77
2021/10/05 03:56:57;;;;;;;9.68;8.77;;;;;;;10.57;100.00;95466.03;5054228;28;24427;-76
2021/10/05 03:59:23;;;;;;;9.70;8.70;;;;;;;10.63;100.00;95470.78;5053687;28;20759;-77
2021/10/05 04:01:49;;;;;;;10.45;9.35;;;;;;;10.63;100.00;95463.84;5053869;28;24429;-77
2021/10/05 04:04:16;;;;;;;10.10;9.10;;;;;;;10.66;100.00;95458.47;5053699;28;20735;-77
2021/10/05 04:06:43;;;;;;;9.95;9.02;;;;;;;10.70;100.00;95468.63;5053366;28;24431;-77
2021/10/05 04:09:09;;;;;;;10.88;9.60;;;;;;;10.69;100.00;95467.78;5053391;28;24956;-77
2021/10/05 04:11:37;;;;;;;10.05;9.05;;;;;;;10.70;100.00;95477.22;5053646;28;20767;-77
2021/10/05 04:14:05;;;;;;;9.90;9.07;;;;;;;10.68;100.00;95470.47;5052555;28;24411;-77
2021/10/05 04:16:31;;;;;;;10.68;9.73;;;;;;;10.73;100.00;95461.47;5052483;28;24427;-77
2021/10/05 04:18:58;;;;;;;11.30;10.13;;;;;;;10.78;100.00;95461.97;5053018;28;24427;-77
2021/10/05 04:21:24;;;;;;;10.52;9.43;;;;;;;10.80;100.00;95467.88;5052637;28;24428;-77
2021/10/05 04:23:50;;;;;;;11.23;10.13;;;;;;;10.77;100.00;95467.28;5046754;28;21056;-77
2021/10/05 04:26:17;;;;;;;11.32;10.25;;;;;;;10.68;100.00;95476.50;5050907;28;24435;-77
2021/10/05 04:28:44;;;;;;;11.40;10.18;;;;;;;10.63;100.00;95466.44;5051208;28;24466;-77
2021/10/05 04:31:11;;;;;;;9.40;8.55;;;;;;;10.66;100.00;95462.81;5051356;28;24840;-77
2021/10/05 04:33:38;;;;;;;10.15;9.25;;;;;;;10.57;100.00;95460.88;5051274;28;24423;-77
2021/10/05 04:36:04;;;;;;;10.30;9.30;;;;;;;10.59;100.00;95458.97;5041355;28;20781;-77
2021/10/05 04:38:31;;;;;;;9.15;8.27;;;;;;;10.63;100.00;95450.91;5050975;28;24435;-77
2021/10/05 04:40:57;;;;;;;9.68;8.77;;;;;;;10.69;100.00;95447.06;5050903;28;24999;-77
2021/10/05 04:43:24;;;;;;;10.35;9.35;;;;;;;10.65;100.00;95432.69;5051130;28;24549;-77
2021/10/05 04:45:50;;;;;;;11.75;8.93;;;;;;;10.63;100.00;95444.88;5051192;28;24792;-77
2021/10/05 04:48:18;;;;;;;10.82;9.00;;;;;;;10.62;100.00;95433.72;5051094;28;24439;-77
2021/10/05 04:50:45;;;;;;;10.70;9.70;;;;;;;10.61;100.00;95421.69;5051766;28;24790;-77
2021/10/05 04:53:14;;;;;;;10.10;9.20;;;;;;;10.64;100.00;95420.66;5051673;28;24427;-77
2021/10/05 04:55:43;;;;;;;10.00;9.10;;;;;;;10.51;100.00;95433.63;5051816;28;24435;-77
2021/10/05 04:58:09;;;;;;;9.40;8.50;;;;;;;10.54;100.00;95430.00;5051971;28;24497;-77
2021/10/05 05:00:36;;;;;;;9.73;8.85;;;;;;;10.48;100.00;95438.16;5052037;28;20759;-77
2021/10/05 05:03:02;;;;;;;9.20;8.40;;;;;;;10.47;100.00;95432.16;5051545;28;24824;-77
2021/10/05 05:05:30;;;;;;;9.35;8.45;;;;;;;10.54;100.00;95430.81;5051438;28;20821;-77
2021/10/05 05:07:58;;;;;;;10.05;9.15;;;;;;;10.61;100.00;95434.66;5051261;28;24427;-77
2021/10/05 05:10:24;;;;;;;9.43;8.60;;;;;;;10.66;100.00;95421.38;5051254;28;24992;-77
2021/10/05 05:12:51;;;;;;;10.05;8.95;;;;;;;10.71;100.00;95421.06;5051427;28;24412;-77
2021/10/05 05:15:17;;;;;;;10.75;9.48;;;;;;;10.71;100.00;95411.53;5051188;28;24424;-77
2021/10/05 05:17:44;;;;;;;10.48;9.45;;;;;;;10.71;100.00;95408.09;5050873;28;24827;-77
2021/10/05 05:20:11;;;;;;;10.27;9.27;;;;;;;10.74;100.00;95407.91;5050601;28;24430;-77
2021/10/05 05:22:39;;;;;;;11.23;10.00;;;;;;;10.78;100.00;95404.16;5051998;28;24430;-77
2021/10/05 05:25:07;;;;;;;12.50;11.20;;;;;;;10.76;100.00;95401.69;5055073;28;24423;-77
2021/10/05 05:27:33;;;;;;;12.25;11.15;;;;;;;10.74;100.00;95395.78;5054976;28;24435;-77
2021/10/05 05:30:00;;;;;;;12.23;11.07;;;;;;;10.77;100.00;95399.91;5054856;28;24980;-77
2021/10/05 05:32:26;;;;;;;14.52;10.55;;;;;;;10.81;100.00;95401.38;5054918;28;24423;-77
2021/10/05 05:34:52;;;;;;;12.25;10.90;;;;;;;10.75;100.00;95400.00;5054130;28;24428;-77
2021/10/05 05:37:19;;;;;;;12.87;11.33;;;;;;;10.67;100.00;95394.53;5045095;28;24583;-77
2021/10/05 05:39:47;;;;;;;11.30;10.30;;;;;;;10.70;100.00;95390.91;5038832;28;24440;-76
2021/10/05 05:42:13;;;;;;;11.40;10.40;;;;;;;10.69;100.00;95382.31;5047928;28;24840;-77
2021/10/05 05:44:41;;;;;;;11.53;10.43;;;;;;;10.72;100.00;95391.66;5056681;28;24956;-78
2021/10/05 05:47:08;;;;;;;10.67;9.63;;;;;;;10.75;100.00;95394.81;5054206;28;24442;-77
2021/10/05 05:49:34;;;;;;;12.20;11.00;;;;;;;10.79;100.00;95403.22;5042398;28;24454;-78
2021/10/05 05:52:01;;;;;;;10.95;9.90;;;;;;;10.80;100.00;95404.91;5048625;28;24516;-77
2021/10/05 05:54:27;;;;;;;12.38;11.27;;;;;;;10.76;100.00;95395.69;5055015;28;24435;-77
2021/10/05 05:56:55;;;;;;;12.60;11.35;;;;;;;10.72;100.00;95389.06;5049542;28;24446;-77
2021/10/05 05:59:21;;;;;;;11.40;10.30;;;;;;;10.79;100.00;95391.13;5054265;28;24828;-77
2021/10/05 06:01:48;;;;;;;10.88;9.85;;;;;;;10.82;100.00;95387.47;5053959;28;24777;-78
2021/10/05 06:04:14;;;;;;;10.98;9.98;;;;;;;10.85;100.00;95388.09;5053809;28;24952;-78
2021/10/05 06:06:40;;;;;;;12.75;10.13;;;;;;;10.89;100.00;95386.94;5053616;28;24407;-76
2021/10/05 06:09:07;;;;;;;10.90;10.00;;;;;;;10.91;100.00;95381.66;5053278;28;24435;-76
2021/10/05 06:11:37;;;;;;;11.98;10.77;;;;;;;10.91;100.00;95373.88;5052984;28;24430;-76
2021/10/05 06:14:05;;;;;;;10.80;9.30;;;;;;;10.87;100.00;95378.44;5053200;28;24455;-77
2021/10/05 06:16:32;;;;;;;12.85;9.88;;;;;;;10.83;100.00;95382.19;5038555;28;24459;-76
2021/10/05 06:18:58;;;;;;;11.85;10.40;;;;;;;10.80;100.00;95386.75;5032930;28;24419;-77
2021/10/05 06:21:24;;;;;;;15.20;11.07;;;;;;;10.76;100.00;95393.09;5033228;28;24427;-76
2021/10/05 06:23:51;;;;;;;13.68;11.38;;;;;;;10.78;100.00;95375.66;5033244;28;24976;-77
2021/10/05 06:26:18;;;;;;;14.73;11.63;;;;;;;10.76;100.00;95382.72;5032643;28;24514;-77
2021/10/05 06:28:45;;;;;;;12.27;10.43;;;;;;;10.80;100.00;95377.22;5033094;28;24423;-77
2021/10/05 06:31:12;;;;;;;17.25;10.98;;;;;;;10.76;100.00;95373.19;5032938;28;24447;-76
2021/10/05 06:33:39;;;;;;;18.85;11.73;;;;;;;10.73;100.00;95377.75;5032089;28;24460;-77
2021/10/05 06:36:07;;;;;;;12.95;10.38;;;;;;;10.65;100.00;95371.34;5032378;28;24424;-76
2021/10/05 06:38:34;;;;;;;21.63;12.63;;;;;;;10.61;100.00;95367.31;5032808;28;24427;-77
2021/10/05 06:41:00;;;;;;;19.83;16.05;;;;;;;10.63;100.00;95369.78;5032870;28;24431;-77
2021/10/05 06:43:27;;;;;;;23.42;14.55;;;;;;;10.65;100.00;95368.75;5039826;28;24423;-77
2021/10/05 06:45:53;;;;;;;23.60;14.93;;;;;;;10.74;100.00;95375.06;5052393;28;24431;-77
2021/10/05 06:48:21;;;;;;;21.00;14.68;;;;;;;10.83;100.00;95361.47;5052886;28;24488;-76
2021/10/05 06:50:47;;;;;;;18.35;12.68;;;;;;;10.89;100.00;95361.03;5052438;28;24451;-77
2021/10/05 06:53:16;;;;;;;14.13;11.13;;;;;;;10.83;100.00;95353.69;5052524;28;24427;-77
2021/10/05 06:55:46;;;;;;;10.82;9.73;;;;;;;10.94;100.00;95350.34;5051955;28;24987;-78
2021/10/05 06:58:12;;;;;;;17.75;10.98;;;;;;;10.93;100.00;95350.44;5052643;28;24520;-77
2021/10/05 07:00:39;;;;;;;12.40;11.18;;;;;;;10.88;100.00;95343.81;5052426;28;24415;-77
2021/10/05 07:03:06;;;;;;;11.35;10.35;;;;;;;10.97;100.00;95357.06;5052280;28;24419;-77
2021/10/05 07:05:34;;;;;;;11.85;10.70;;;;;;;10.97;100.00;95354.47;5052276;28;24427;-77
2021/10/05 07:08:04;;;;;;;11.30;10.18;;;;;;;10.92;100.00;95354.81;5046640;28;24788;-77
2021/10/05 07:10:31;;;;;;;11.63;10.48;;;;;;;11.02;100.00;95350.63;5052018;28;24458;-77
2021/10/05 07:12:57;;;;;;;13.95;11.27;;;;;;;10.97;100.00;95352.69;5055504;28;24454;-76
2021/10/05 07:15:24;;;;;;;13.00;11.40;;;;;;;10.94;100.00;95344.31;5057187;28;24526;-77
2021/10/05 07:17:54;;;;;;;11.90;10.63;;;;;;;11.06;100.00;95343.47;5054643;28;24839;-77
2021/10/05 07:20:21;;;;;;;13.52;11.25;;;;;;;11.10;100.00;95340.53;5053181;28;24469;-77
2021/10/05 07:22:49;;;;;;;11.60;10.40;;;;;;;11.06;100.00;95351.25;5055132;28;24461;-78
2021/10/05 07:25:16;;;;;;;10.98;9.88;;;;;;;11.12;100.00;95349.03;5053480;28;24979;-78
2021/10/05 07:27:46;;;;;;;11.53;10.03;;;;;;;11.02;100.00;95355.81;5059268;28;24506;-78
2021/10/05 07:30:12;;;;;;;10.90;9.80;;;;;;;11.08;100.00;95346.75;5057340;28;24447;-77
2021/10/05 07:32:39;;;;;;;26.95;11.93;;;;;;;10.99;100.00;95348.25;5051974;28;24427;-77
2021/10/05 07:35:06;;;;;;;15.68;10.68;;;;;;;11.14;100.00;95354.09;5055169;28;24476;-77
2021/10/05 07:37:33;;;;;;;32.20;10.73;;;;;;;11.06;100.00;95353.84;5037797;28;24443;-77
2021/10/05 07:40:00;;;;;;;11.15;8.65;;;;;;;11.00;100.00;95354.25;5039609;28;24431;-77
2021/10/05 07:42:27;;;;;;;12.70;8.27;;;;;;;10.94;100.00;95359.88;5053264;28;24435;-78
2021/10/05 07:44:53;;;;;;;9.73;8.02;;;;;;;11.09;100.00;95357.03;5052742;28;24415;-77
2021/10/05 07:47:21;;;;;;;9.48;8.20;;;;;;;11.17;100.00;95355.66;5053732;28;24420;-78
2021/10/05 07:49:51;;;;;;;10.88;8.70;;;;;;;11.22;100.00;95358.75;5051445;28;24449;-77
2021/10/05 07:52:18;;;;;;;9.23;7.65;;;;;;;11.26;100.00;95355.81;5052049;28;20806;-77
2021/10/05 07:54:44;;;;;;;7.75;6.95;;;;;;;11.18;100.00;95358.13;5050859;28;24941;-77
2021/10/05 07:57:12;;;;;;;8.30;7.40;;;;;;;11.13;100.00;95350.69;5052362;28;20767;-76
2021/10/05 07:59:39;;;;;;;9.35;7.45;;;;;;;11.06;100.00;95352.06;5052976;28;24948;-78
2021/10/05 08:02:05;;;;;;;10.15;8.57;;;;;;;11.10;100.00;95356.09;5051001;28;24430;-78
2021/10/05 08:04:31;;;;;;;8.40;7.45;;;;;;;11.16;100.00;95354.84;5050619;28;24968;-77
2021/10/05 08:06:58;;;;;;;7.15;6.45;;;;;;;11.19;100.00;95352.00;5050568;28;24504;-76
2021/10/05 08:09:24;;;;;;;7.20;6.47;;;;;;;11.14;100.00;95352.34;5051119;28;24430;-77
2021/10/05 08:11:51;;;;;;;7.93;6.80;;;;;;;11.13;100.00;95353.28;5051394;28;24438;-78
2021/10/05 08:14:18;;;;;;;7.03;6.40;;;;;;;11.23;100.00;95355.19;5050939;28;24438;-77
2021/10/05 08:16:46;;;;;;;8.13;6.17;;;;;;;11.23;100.00;95356.03;5050795;28;24424;-78
2021/10/05 08:19:13;;;;;;;8.02;6.38;;;;;;;11.27;100.00;95360.09;5050684;28;24424;-77
2021/10/05 08:21:39;;;;;;;6.93;6.10;;;;;;;11.39;100.00;95356.59;5051318;28;24424;-76
2021/10/05 08:24:06;;;;;;;18.80;5.93;;;;;;;11.34;100.00;95361.25;5051319;28;24419;-78
2021/10/05 08:26:33;;;;;;;7.07;5.97;;;;;;;11.33;100.00;95361.38;5051097;28;24438;-78
2021/10/05 08:28:59;;;;;;;6.15;5.65;;;;;;;11.30;100.00;95362.44;5052225;28;24971;-80
2021/10/05 08:31:27;;;;;;;7.07;5.63;;;;;;;11.30;100.00;95365.03;5058868;28;24798;-78
2021/10/05 08:33:54;;;;;;;6.47;5.82;;;;;;;11.32;100.00;95368.34;5051212;28;24932;-77
2021/10/05 08:36:20;;;;;;;6.63;5.93;;;;;;;11.38;100.00;95370.50;5046498;28;24818;-77
2021/10/05 08:38:47;;;;;;;5.82;5.32;;;;;;;11.47;100.00;95365.59;5031187;28;24455;-77
2021/10/05 08:41:15;;;;;;;7.03;6.00;;;;;;;11.50;100.00;95363.59;5032119;28;24474;-78
2021/10/05 08:43:42;;;;;;;7.32;6.07;;;;;;;11.53;100.00;95358.19;5041069;28;24438;-78
2021/10/05 08:46:09;;;;;;;12.80;5.90;;;;;;;11.49;100.00;95361.09;5050903;28;24431;-76
2021/10/05 08:48:38;;;;;;;6.45;5.45;;;;;;;11.59;100.00;95360.31;5050833;28;24426;-76
2021/10/05 08:51:07;;;;;;;6.22;5.55;;;;;;;11.55;100.00;95358.06;5050900;28;24446;-78
2021/10/05 08:53:36;;;;;;;6.47;5.57;;;;;;;11.69;100.00;95360.47;5050934;28;24455;-77
2021/10/05 08:56:04;;;;;;;8.00;6.32;;;;;;;11.60;100.00;95363.72;5050366;28;24427;-77
2021/10/05 08:58:31;;;;;;;9.18;6.15;;;;;;;11.75;100.00;95351.41;5053441;28;24423;-77
2021/10/05 09:01:07;;;;;;;9.70;6.90;;;;;;;11.75;100.00;95361.78;5054625;28;24422;-77
2021/10/05 09:03:34;;;;;;;7.03;5.88;;;;;;;11.79;100.00;95355.41;5054520;28;24507;-77
2021/10/05 09:06:11;;;;;;;15.63;6.38;;;;;;;11.84;100.00;95353.34;5054284;28;24426;-77
2021/10/05 09:08:40;;;;;;;6.22;5.63;;;;;;;11.84;100.00;95353.34;5054425;28;24462;-77
2021/10/05 09:11:06;;;;;;;7.55;5.82;;;;;;;11.76;100.00;95360.84;5054360;28;24447;-77
2021/10/05 09:13:34;;;;;;;7.57;5.57;;;;;;;11.79;100.00;95363.19;5054452;28;24517;-77
2021/10/05 09:16:02;;;;;;;8.25;5.05;;;;;;;11.82;100.00;95358.63;5053991;28;24420;-77
2021/10/05 09:18:29;;;;;;;5.70;5.20;;;;;;;11.90;100.00;95359.84;5054031;28;24974;-77
2021/10/05 09:20:55;;;;;;;5.40;4.90;;;;;;;11.78;100.00;95351.19;5054285;28;24434;-77
2021/10/05 09:23:23;;;;;;;5.45;4.90;;;;;;;11.92;100.00;95345.81;5054187;28;24442;-77
2021/10/05 09:25:51;;;;;;;7.97;4.70;;;;;;;12.10;100.00;95328.03;5053992;28;24512;-77
2021/10/05 09:28:20;;;;;;;6.13;4.90;;;;;;;12.14;100.00;95321.69;5054104;28;24512;-77
2021/10/05 09:31:00;;;;;;;7.40;5.18;;;;;;;12.21;100.00;95317.66;5054018;28;24471;-77
2021/10/05 09:33:28;;;;;;;5.18;4.22;;;;;;;12.38;100.00;95311.16;5053887;28;24415;-77
2021/10/05 09:35:54;;;;;;;4.65;4.22;;;;;;;12.57;100.00;95306.22;5053730;28;24429;-77
2021/10/05 09:38:26;;;;;;;3.97;3.67;;;;;;;12.69;100.00;95296.63;5053827;28;24435;-77
2021/10/05 09:41:01;;;;;;;4.47;3.58;;;;;;;12.81;100.00;95300.03;5053628;28;24426;-77
2021/10/05 09:43:29;;;;;;;7.53;3.05;;;;;;;12.89;100.00;95307.22;5053811;28;24974;-77
2021/10/05 09:46:08;;;;;;;3.10;2.80;;;;;;;12.87;100.00;95306.50;5053334;28;24948;-78
2021/10/05 09:48:35;;;;;;;3.10;2.80;;;;;;;12.68;100.00;95307.13;5053501;28;24975;-77
2021/10/05 09:51:14;;;;;;;3.30;2.30;;;;;;;12.82;100.00;95304.28;5053609;28;24497;-77
2021/10/05 09:53:42;;;;;;;2.58;2.38;;;;;;;12.87;100.00;95309.09;5053787;28;24414;-77
2021/10/05 09:56:12;;;;;;;2.90;2.33;;;;;;;12.88;100.00;95309.00;5053358;28;24430;-77
2021/10/05 09:58:39;;;;;;;3.10;2.58;;;;;;;12.93;100.00;95303.41;5053810;28;24516;-77
2021/10/05 10:01:06;;;;;;;3.30;2.38;;;;;;;12.91;100.00;95308.75;5053545;28;24418;-77
2021/10/05 10:03:34;;;;;;;3.53;2.00;;;;;;;12.83;100.00;95308.53;5053481;28;24426;-77
2021/10/05 10:06:01;;;;;;;1.70;1.50;;;;;;;12.77;100.00;95309.84;5053130;28;24423;-77
2021/10/05 10:08:29;;;;;;;1.75;1.65;;;;;;;12.78;100.00;95303.69;5052887;28;24446;-77
2021/10/05 10:10:57;;;;;;;3.13;1.77;;;;;;;12.72;100.00;95308.53;5053225;28;24454;-77
2021/10/05 10:13:25;;;;;;;3.10;1.55;;;;;;;12.76;100.00;95310.78;5053246;28;24423;-76
2021/10/05 10:15:57;;;;;;;1.15;1.00;;;;;;;12.79;100.00;95304.50;5056961;28;24419;-77
2021/10/05 10:18:24;;;;;;;1.45;0.88;;;;;;;12.96;100.00;95306.59;5057087;28;24431;-76
2021/10/05 10:21:04;;;;;;;1.15;0.93;;;;;;;13.00;100.00;95310.63;5053769;28;24431;-77
2021/10/05 10:23:31;;;;;;;0.93;0.80;;;;;;;13.01;100.00;95309.66;5053365;28;24422;-77
2021/10/05 10:26:03;;;;;;;0.90;0.60;;;;;;;13.13;100.00;95307.88;5052930;28;24422;-77
2021/10/05 10:28:32;;;;;;;0.65;0.35;;;;;;;13.30;100.00;95317.75;5053141;28;24518;-77
2021/10/05 10:31:01;;;;;;;1.20;0.50;;;;;;;13.25;100.00;95306.09;5052840;28;24486;-77
2021/10/05 10:33:29;;;;;;;0.52;0.40;;;;;;;13.00;100.00;95309.78;5052962;28;24451;-77
2021/10/05 10:35:59;;;;;;;1.17;0.50;;;;;;;13.22;100.00;95312.31;5052421;28;24965;-77
2021/10/05 10:38:28;;;;;;;0.70;0.50;;;;;;;13.12;100.00;95319.19;5052574;28;24423;-77
2021/10/05 10:40:55;;;;;;;0.82;0.40;;;;;;;13.15;100.00;95313.75;5052774;28;24430;-77
2021/10/05 10:43:26;;;;;;;1.80;0.50;;;;;;;13.25;100.00;95321.69;5052766;28;24477;-77
2021/10/05 10:45:55;;;;;;;1.15;0.40;;;;;;;13.27;100.00;95307.63;5052217;28;25018;-77
2021/10/05 10:48:32;;;;;;;0.67;0.50;;;;;;;13.39;100.00;95315.38;5052680;28;24419;-77
2021/10/05 10:51:03;;;;;;;0.45;0.40;;;;;;;13.30;100.00;95316.94;5052608;28;24443;-77
2021/10/05 10:53:39;;;;;;;0.40;0.40;;;;;;;13.33;100.00;95316.69;5052742;28;24765;-77
2021/10/05 10:56:07;;;;;;;2.10;0.60;;;;;;;13.35;100.00;95317.41;5052279;28;24414;-77
2021/10/05 10:58:40;;;;;;;0.40;0.32;;;;;;;13.42;100.00;95320.31;5052516;28;24425;-77
2021/10/05 11:01:07;;;;;;;0.40;0.30;;;;;;;13.54;100.00;95327.97;5053102;28;24445;-78
2021/10/05 11:03:34;;;;;;;0.50;0.40;;;;;;;13.66;100.00;95323.53;5052241;28;24979;-77
2021/10/05 11:06:00;;;;;;;0.80;0.40;;;;;;;13.70;100.00;95318.91;5052570;28;24468;-72
2021/10/05 11:08:27;;;;;;;0.25;0.20;;;;;;;13.60;100.00;95305.81;5052062;28;24427;-78
2021/10/05 11:11:02;;;;;;;0.32;0.20;;;;;;;13.61;100.00;95304.03;5052270;28;24446;-77
2021/10/05 11:13:28;;;;;;;1.00;0.38;;;;;;;13.64;100.00;95306.38;5052211;28;24427;-77
2021/10/05 11:15:56;;;;;;;0.57;0.20;;;;;;;13.71;100.00;95305.75;5051968;28;24429;-77
2021/10/05 11:18:26;;;;;;;0.50;0.30;;;;;;;13.66;100.00;95305.31;5052158;28;24419;-77
2021/10/05 11:20:56;;;;;;;1.63;0.40;;;;;;;13.56;100.00;95302.63;5051538;28;24481;-77
2021/10/05 11:23:25;;;;;;;1.00;0.40;;;;;;;13.46;100.00;95304.34;5052103;28;24523;-77